createdAt,value
2022-12-03T00:02:16.908Z,28.98
2022-12-03T00:04:43.915Z,27.30
2022-12-03T00:07:11.084Z,28.45
2022-12-03T00:09:38.016Z,27.88
2022-12-03T00:12:05.627Z,27.52
2022-12-03T00:14:32.613Z,26.92
2022-12-03T00:17:00.125Z,25.27
2022-12-03T00:19:27.169Z,28.00
2022-12-03T00:21:54.196Z,27.85
2022-12-03T00:24:21.228Z,27.23
2022-12-03T00:26:48.294Z,29.75
2022-12-03T00:29:15.201Z,27.73
2022-12-03T00:31:43.327Z,26.80
2022-12-03T00:34:10.262Z,25.95
2022-12-03T00:36:37.329Z,26.33
2022-12-03T00:39:04.436Z,27.70
2022-12-03T00:41:31.423Z,27.42
2022-12-03T00:43:58.669Z,28.25
2022-12-03T00:46:25.903Z,27.35
2022-12-03T00:48:53.144Z,27.52
2022-12-03T00:51:20.184Z,26.90
2022-12-03T00:53:47.805Z,27.88
2022-12-03T00:56:14.896Z,28.08
2022-12-03T00:58:41.884Z,27.35
2022-12-03T01:01:09.504Z,27.75
2022-12-03T01:03:36.437Z,27.30
2022-12-03T01:06:03.869Z,29.35
2022-12-03T01:08:30.816Z,30.10
2022-12-03T01:10:57.927Z,29.52
2022-12-03T01:13:25.053Z,28.52
2022-12-03T01:15:52.162Z,27.45
2022-12-03T01:18:19.363Z,27.00
2022-12-03T01:20:46.451Z,30.08
2022-12-03T01:23:13.351Z,28.92
2022-12-03T01:25:40.518Z,31.05
2022-12-03T01:28:07.534Z,28.85
2022-12-03T01:30:54.418Z,28.65
2022-12-03T01:33:21.877Z,29.73
2022-12-03T01:35:48.923Z,29.10
2022-12-03T01:38:16.005Z,29.75
2022-12-03T01:40:42.908Z,29.02
2022-12-03T01:43:10.102Z,29.42
2022-12-03T01:45:37.117Z,28.50
2022-12-03T01:48:04.102Z,29.30
2022-12-03T01:50:33.299Z,28.45
2022-12-03T01:53:03.126Z,29.35
2022-12-03T01:55:30.430Z,27.08
2022-12-03T01:58:02.392Z,28.15
2022-12-03T02:00:30.700Z,29.23
2022-12-03T02:03:08.141Z,28.35
2022-12-03T02:05:35.413Z,28.17
2022-12-03T02:08:02.471Z,28.67
2022-12-03T02:10:38.115Z,30.27
2022-12-03T02:13:07.681Z,28.10
2022-12-03T02:15:36.112Z,28.55
2022-12-03T02:18:03.268Z,27.60
2022-12-03T02:20:33.710Z,26.67
2022-12-03T02:23:06.864Z,27.98
2022-12-03T02:25:36.160Z,29.15
2022-12-03T02:28:04.810Z,27.73
2022-12-03T02:30:32.507Z,27.25
2022-12-03T02:32:59.954Z,29.05
2022-12-03T02:35:35.409Z,30.25
2022-12-03T02:38:20.998Z,19.50
2022-12-03T02:40:54.105Z,26.20
2022-12-03T02:43:22.015Z,27.60
2022-12-03T02:45:53.913Z,28.55
2022-12-03T02:48:31.544Z,27.63
2022-12-03T02:51:03.321Z,26.63
2022-12-03T02:53:36.633Z,26.42
2022-12-03T02:56:04.757Z,27.35
2022-12-03T02:58:34.154Z,27.67
2022-12-03T03:01:04.052Z,26.90
2022-12-03T03:03:32.376Z,27.60
2022-12-03T03:06:02.700Z,26.30
2022-12-03T03:08:31.740Z,28.17
2022-12-03T03:11:01.076Z,26.17
2022-12-03T03:13:30.776Z,28.73
2022-12-03T03:15:58.116Z,26.75
2022-12-03T03:18:25.697Z,28.02
2022-12-03T03:20:53.779Z,27.15
2022-12-03T03:23:23.891Z,29.42
2022-12-03T03:26:06.090Z,27.40
2022-12-03T03:28:40.753Z,25.45
2022-12-03T03:31:10.868Z,27.48
2022-12-03T03:33:40.459Z,28.02
2022-12-03T03:36:08.626Z,27.30
2022-12-03T03:38:36.716Z,27.40
2022-12-03T03:41:06.821Z,27.80
2022-12-03T03:43:36.616Z,27.70
2022-12-03T03:46:05.875Z,26.20
2022-12-03T03:48:34.700Z,27.27
2022-12-03T03:51:04.157Z,28.35
2022-12-03T03:53:31.474Z,27.02
2022-12-03T03:55:58.469Z,26.98
2022-12-03T03:58:25.394Z,26.67
2022-12-03T04:00:52.686Z,26.70
2022-12-03T04:03:19.835Z,27.50
2022-12-03T04:05:47.143Z,28.35
2022-12-03T04:08:14.370Z,26.25
2022-12-03T04:10:59.625Z,27.60
2022-12-03T04:13:27.083Z,27.40
2022-12-03T04:15:54.135Z,26.65
2022-12-03T04:18:39.845Z,26.13
2022-12-03T04:21:25.231Z,27.25
2022-12-03T04:23:52.349Z,23.85
2022-12-03T04:26:38.062Z,26.30
2022-12-03T04:29:05.053Z,25.58
2022-12-03T04:31:50.543Z,28.38
2022-12-03T04:34:36.237Z,27.63
2022-12-03T04:37:03.254Z,27.85
2022-12-03T04:39:30.157Z,26.33
2022-12-03T04:41:57.146Z,26.70
2022-12-03T04:44:39.347Z,27.75
2022-12-03T04:47:20.636Z,27.48
2022-12-03T04:49:51.082Z,25.77
2022-12-03T04:52:20.811Z,26.52
2022-12-03T04:54:48.006Z,26.35
2022-12-03T04:57:15.043Z,26.98
2022-12-03T04:59:42.137Z,27.63
2022-12-03T05:02:09.267Z,27.73
2022-12-03T05:04:36.614Z,28.23
2022-12-03T05:07:03.780Z,26.70
2022-12-03T05:09:32.592Z,27.73
2022-12-03T05:11:59.603Z,27.65
2022-12-03T05:14:26.676Z,27.25
2022-12-03T05:16:53.644Z,27.83
2022-12-03T05:19:20.732Z,26.55
2022-12-03T05:21:47.566Z,28.30
2022-12-03T05:24:14.886Z,28.25
2022-12-03T05:26:41.735Z,28.00
2022-12-03T05:29:08.779Z,28.35
2022-12-03T05:31:35.777Z,28.10
2022-12-03T05:34:03.201Z,28.33
2022-12-03T05:36:30.506Z,27.65
2022-12-03T05:38:57.444Z,27.77
2022-12-03T05:41:43.275Z,27.98
2022-12-03T05:44:10.206Z,27.27
2022-12-03T05:46:37.214Z,28.42
2022-12-03T05:49:04.252Z,28.92
2022-12-03T05:51:31.242Z,27.17
2022-12-03T05:53:58.278Z,28.70
2022-12-03T05:56:25.155Z,30.20
2022-12-03T05:58:52.159Z,29.73
2022-12-03T06:01:19.243Z,28.42
2022-12-03T06:03:46.356Z,29.15
2022-12-03T06:06:13.516Z,28.00
2022-12-03T06:08:40.448Z,25.98
2022-12-03T06:11:07.435Z,29.27
2022-12-03T06:13:34.875Z,28.38
2022-12-03T06:16:01.775Z,27.48
2022-12-03T06:18:28.965Z,27.00
2022-12-03T06:20:55.974Z,29.20
2022-12-03T06:23:23.009Z,29.48
2022-12-03T06:25:50.889Z,30.25
2022-12-03T06:28:17.948Z,27.98
2022-12-03T06:30:44.873Z,29.10
2022-12-03T06:33:12.303Z,29.17
2022-12-03T06:35:39.321Z,28.38
2022-12-03T06:38:06.417Z,28.08
2022-12-03T06:40:33.554Z,30.45
2022-12-03T06:43:00.662Z,28.27
2022-12-03T06:45:27.670Z,29.90
2022-12-03T06:47:54.567Z,30.55
2022-12-03T06:50:21.557Z,34.92
2022-12-03T06:52:48.679Z,29.42
2022-12-03T06:55:15.683Z,29.95
2022-12-03T06:57:42.650Z,29.15
2022-12-03T07:00:11.534Z,30.48
2022-12-03T07:02:38.918Z,28.15
2022-12-03T07:05:06.179Z,29.27
2022-12-03T07:07:33.434Z,29.35
2022-12-03T07:10:00.438Z,28.75
2022-12-03T07:12:27.458Z,27.85
2022-12-03T07:14:54.426Z,30.25
2022-12-03T07:17:21.609Z,29.50
2022-12-03T07:19:48.569Z,30.45
2022-12-03T07:22:15.711Z,30.42
2022-12-03T07:24:42.926Z,29.63
2022-12-03T07:27:10.203Z,32.55
2022-12-03T07:29:37.676Z,31.33
2022-12-03T07:32:04.828Z,31.17
2022-12-03T07:34:31.921Z,31.90
2022-12-03T07:36:58.807Z,31.73
2022-12-03T07:39:25.847Z,29.25
2022-12-03T07:41:52.828Z,32.28
2022-12-03T07:44:19.902Z,33.03
2022-12-03T07:46:47.029Z,30.80
2022-12-03T07:49:14.190Z,31.42
2022-12-03T07:51:41.428Z,31.25
2022-12-03T07:54:08.437Z,31.70
2022-12-03T07:56:35.740Z,29.98
2022-12-03T07:59:02.890Z,29.67
2022-12-03T08:01:29.827Z,32.42
2022-12-03T08:03:57.088Z,30.85
2022-12-03T08:06:24.143Z,31.98
2022-12-03T08:08:51.170Z,30.38
2022-12-03T08:11:18.124Z,29.88
2022-12-03T08:13:45.061Z,29.42
2022-12-03T08:16:20.820Z,30.67
2022-12-03T08:18:50.145Z,30.40
2022-12-03T08:21:20.368Z,28.48
2022-12-03T08:23:47.604Z,31.40
2022-12-03T08:26:30.838Z,30.63
2022-12-03T08:28:57.842Z,30.77
2022-12-03T08:31:32.955Z,31.30
2022-12-03T08:34:21.958Z,31.02
2022-12-03T08:36:56.572Z,30.17
2022-12-03T08:39:33.795Z,29.95
2022-12-03T08:42:43.609Z,30.92
2022-12-03T08:45:29.984Z,28.83
2022-12-03T08:48:00.609Z,31.17
2022-12-03T08:50:32.477Z,32.47
2022-12-03T08:53:23.964Z,28.63
2022-12-03T08:55:58.182Z,28.80
2022-12-03T08:58:36.789Z,29.85
2022-12-03T09:01:13.240Z,30.20
2022-12-03T09:06:19.358Z,26.27
2022-12-03T09:08:46.366Z,31.48
2022-12-03T09:11:14.461Z,29.95
2022-12-03T09:13:41.526Z,28.95
2022-12-03T09:16:08.637Z,30.67
2022-12-03T09:18:35.828Z,30.45
2022-12-03T09:21:02.741Z,29.75
2022-12-03T09:23:29.685Z,31.52
2022-12-03T09:25:56.747Z,29.65
2022-12-03T09:28:23.653Z,29.33
2022-12-03T09:30:51.015Z,29.90
2022-12-03T09:33:18.117Z,29.70
2022-12-03T09:35:45.015Z,32.00
2022-12-03T09:38:11.915Z,30.73
2022-12-03T09:40:41.064Z,31.33
2022-12-03T09:43:08.644Z,29.75
2022-12-03T09:45:35.671Z,30.38
2022-12-03T09:48:06.546Z,31.80
2022-12-03T09:50:33.571Z,31.33
2022-12-03T09:53:03.774Z,32.22
2022-12-03T09:55:31.759Z,32.63
2022-12-03T09:58:00.650Z,32.33
2022-12-03T10:00:30.355Z,30.90
2022-12-03T10:03:02.142Z,32.03
2022-12-03T10:05:30.181Z,31.42
2022-12-03T10:08:21.907Z,33.35
2022-12-03T10:10:53.357Z,30.23
2022-12-03T10:13:28.999Z,31.20
2022-12-03T10:15:59.128Z,28.80
2022-12-03T10:18:32.717Z,29.63
2022-12-03T10:21:03.481Z,30.67
2022-12-03T10:23:31.582Z,30.30
2022-12-03T10:26:03.706Z,30.13
2022-12-03T10:28:39.752Z,29.95
2022-12-03T10:31:12.590Z,29.63
2022-12-03T10:33:44.740Z,29.42
2022-12-03T10:36:24.457Z,30.63
2022-12-03T10:39:16.796Z,29.98
2022-12-03T10:41:44.753Z,31.42
2022-12-03T10:44:28.860Z,30.30
2022-12-03T10:47:11.575Z,29.33
2022-12-03T10:49:40.531Z,30.77
2022-12-03T10:52:25.722Z,30.10
2022-12-03T10:54:53.759Z,30.15
2022-12-03T10:57:21.107Z,28.92
2022-12-03T10:59:48.452Z,28.77
2022-12-03T11:02:22.450Z,28.52
2022-12-03T11:04:50.824Z,30.83
2022-12-03T11:07:20.850Z,29.60
2022-12-03T11:09:51.684Z,29.73
2022-12-03T11:12:28.651Z,28.33
2022-12-03T11:14:56.818Z,29.95
2022-12-03T11:17:44.833Z,29.25
2022-12-03T11:20:22.936Z,29.52
2022-12-03T11:22:55.467Z,28.35
2022-12-03T11:25:25.655Z,28.55
2022-12-03T11:28:13.729Z,28.52
2022-12-03T11:30:53.578Z,27.15
2022-12-03T11:33:31.780Z,29.00
2022-12-03T11:36:05.167Z,29.05
2022-12-03T11:38:37.948Z,28.77
2022-12-03T11:41:21.626Z,26.30
2022-12-03T11:43:57.193Z,27.85
2022-12-03T11:46:36.693Z,28.98
2022-12-03T11:49:21.455Z,27.63
2022-12-03T11:51:48.943Z,28.98
2022-12-03T11:54:18.287Z,26.50
2022-12-03T11:56:49.404Z,27.17
2022-12-03T11:59:17.252Z,27.65
2022-12-03T12:01:44.896Z,28.10
2022-12-03T12:04:28.777Z,28.45
2022-12-03T12:06:55.747Z,28.50
2022-12-03T12:09:53.467Z,28.88
2022-12-03T12:12:54.850Z,25.63
2022-12-03T12:15:43.403Z,27.58
2022-12-03T12:18:39.745Z,26.30
2022-12-03T12:21:47.597Z,28.35
2022-12-03T12:24:41.221Z,25.38
2022-12-03T12:27:10.295Z,26.52
2022-12-03T12:29:40.354Z,27.52
2022-12-03T12:32:13.384Z,26.42
2022-12-03T12:34:53.305Z,28.00
2022-12-03T12:37:53.537Z,25.25
2022-12-03T12:40:30.486Z,26.85
2022-12-03T12:43:26.095Z,28.27
2022-12-03T12:45:56.231Z,26.13
2022-12-03T12:48:32.515Z,31.00
2022-12-03T12:51:19.632Z,43.20
2022-12-03T12:53:46.984Z,30.95
2022-12-03T12:56:25.210Z,29.27
2022-12-03T12:58:52.957Z,27.63
2022-12-03T13:01:31.934Z,27.30
2022-12-03T13:03:59.847Z,28.55
2022-12-03T13:06:31.411Z,28.45
2022-12-03T13:09:01.033Z,27.90
2022-12-03T13:11:41.533Z,27.30
2022-12-03T13:14:22.965Z,25.95
2022-12-03T13:16:55.983Z,26.83
2022-12-03T13:19:24.527Z,48.85
2022-12-03T13:22:13.115Z,32.47
2022-12-03T13:24:45.246Z,28.20
2022-12-03T13:27:18.163Z,27.55
2022-12-03T13:30:08.812Z,28.35
2022-12-03T13:32:39.402Z,27.40
2022-12-03T13:35:22.831Z,27.27
2022-12-03T13:37:50.275Z,34.78
2022-12-03T13:40:31.191Z,28.27
2022-12-03T13:42:59.541Z,27.50
2022-12-03T13:45:32.603Z,27.95
2022-12-03T13:48:03.851Z,26.88
2022-12-03T13:50:40.596Z,26.95
2022-12-03T13:53:29.496Z,27.52
2022-12-03T13:56:28.684Z,26.38
2022-12-03T13:59:00.268Z,26.02
2022-12-03T14:01:28.427Z,26.92
2022-12-03T14:03:56.598Z,27.17
2022-12-03T14:06:23.611Z,26.52
2022-12-03T14:08:51.490Z,25.63
2022-12-03T14:11:36.847Z,25.55
2022-12-03T14:14:03.997Z,26.27
2022-12-03T14:16:31.037Z,25.88
2022-12-03T14:18:58.093Z,24.80
2022-12-03T14:21:25.176Z,25.77
2022-12-03T14:23:52.079Z,24.63
2022-12-03T14:26:19.220Z,24.80
2022-12-03T14:28:46.279Z,25.60
2022-12-03T14:31:13.306Z,25.10
2022-12-03T14:33:40.630Z,23.73
2022-12-03T14:36:07.976Z,22.40
2022-12-03T14:38:35.183Z,23.65
2022-12-03T14:41:02.263Z,24.42
2022-12-03T14:43:29.258Z,23.17
2022-12-03T14:45:56.233Z,23.65
2022-12-03T14:48:23.540Z,23.45
2022-12-03T14:50:50.664Z,24.85
2022-12-03T14:53:20.514Z,25.65
2022-12-03T14:55:50.299Z,24.77
2022-12-03T14:58:17.231Z,22.95
2022-12-03T15:00:44.306Z,24.42
2022-12-03T15:03:11.346Z,25.10
2022-12-03T15:05:38.216Z,24.05
2022-12-03T15:08:05.599Z,41.25
2022-12-03T15:10:32.697Z,32.58
2022-12-03T15:12:59.644Z,26.58
2022-12-03T15:15:27.402Z,26.85
2022-12-03T15:17:54.448Z,25.10
2022-12-03T15:20:21.329Z,25.73
2022-12-03T15:22:48.651Z,24.10
2022-12-03T15:25:15.969Z,23.48
2022-12-03T15:27:43.640Z,24.98
2022-12-03T15:30:10.931Z,23.75
2022-12-03T15:32:39.988Z,25.13
2022-12-03T15:35:07.719Z,24.90
2022-12-03T15:37:34.700Z,24.63
2022-12-03T15:40:01.911Z,26.10
2022-12-03T15:42:29.934Z,25.98
2022-12-03T15:44:56.914Z,25.85
2022-12-03T15:47:24.203Z,25.48
2022-12-03T15:49:51.858Z,28.73
2022-12-03T15:52:18.994Z,26.17
2022-12-03T15:54:46.512Z,25.77
2022-12-03T15:57:13.491Z,23.30
2022-12-03T15:59:40.400Z,24.20
2022-12-03T16:02:07.559Z,25.45
2022-12-03T16:04:35.410Z,26.02
2022-12-03T16:07:03.091Z,25.05
2022-12-03T16:09:30.026Z,39.15
2022-12-03T16:11:57.257Z,29.05
2022-12-03T16:14:24.177Z,25.42
2022-12-03T16:16:52.141Z,25.38
2022-12-03T16:19:19.196Z,24.92
2022-12-03T16:21:46.120Z,24.50
2022-12-03T16:24:13.522Z,24.63
2022-12-03T16:26:40.491Z,24.58
2022-12-03T16:29:07.483Z,25.88
2022-12-03T16:31:34.506Z,25.67
2022-12-03T16:34:02.088Z,26.10
2022-12-03T16:36:29.086Z,24.65
2022-12-03T16:38:56.431Z,23.63
2022-12-03T16:41:23.443Z,23.25
2022-12-03T16:43:50.594Z,25.00
2022-12-03T16:46:17.519Z,24.40
2022-12-03T16:48:44.803Z,25.38
2022-12-03T16:51:11.831Z,24.42
2022-12-03T16:53:38.875Z,24.33
2022-12-03T16:56:05.839Z,24.27
2022-12-03T16:58:32.993Z,26.55
2022-12-03T17:00:59.860Z,26.25
2022-12-03T17:03:33.479Z,27.08
2022-12-03T17:06:02.095Z,25.65
2022-12-03T17:08:29.150Z,24.77
2022-12-03T17:10:56.258Z,26.27
2022-12-03T17:13:23.436Z,27.10
2022-12-03T17:15:51.035Z,26.52
2022-12-03T17:18:18.143Z,24.25
2022-12-03T17:20:45.221Z,25.88
2022-12-03T17:23:12.892Z,26.65
2022-12-03T17:25:39.921Z,26.17
2022-12-03T17:28:06.929Z,24.10
2022-12-03T17:30:34.037Z,24.88
2022-12-03T17:33:01.312Z,25.98
2022-12-03T17:35:28.753Z,25.88
2022-12-03T17:37:55.812Z,24.48
2022-12-03T17:40:22.960Z,25.05
2022-12-03T17:42:50.092Z,24.90
2022-12-03T17:45:17.250Z,25.85
2022-12-03T17:47:44.747Z,26.52
2022-12-03T17:50:11.924Z,26.25
2022-12-03T17:52:38.846Z,26.77
2022-12-03T17:55:13.145Z,26.90
2022-12-03T17:57:41.575Z,27.02
2022-12-03T18:00:10.113Z,26.30
2022-12-03T18:02:40.812Z,26.85
2022-12-03T18:05:08.462Z,26.98
2022-12-03T18:07:35.543Z,25.63
2022-12-03T18:10:02.419Z,25.02
2022-12-03T18:12:29.595Z,25.02
2022-12-03T18:14:56.546Z,26.15
2022-12-03T18:17:23.694Z,26.33
2022-12-03T18:19:50.911Z,28.02
2022-12-03T18:22:18.200Z,26.15
2022-12-03T18:24:47.567Z,24.83
2022-12-03T18:27:17.366Z,25.60
2022-12-03T18:29:44.471Z,26.35
2022-12-03T18:32:27.121Z,26.05
2022-12-03T18:34:55.347Z,26.23
2022-12-03T18:37:26.516Z,27.83
2022-12-03T18:39:54.195Z,26.38
2022-12-03T18:42:23.869Z,26.38
2022-12-03T18:44:54.386Z,28.20
2022-12-03T18:47:28.280Z,24.95
2022-12-03T18:49:56.361Z,25.52
2022-12-03T18:52:25.280Z,28.77
2022-12-03T18:54:53.012Z,28.35
2022-12-03T18:57:20.072Z,27.08
2022-12-03T18:59:47.099Z,26.73
2022-12-03T19:05:09.106Z,26.38
2022-12-03T19:07:36.450Z,27.88
2022-12-03T19:10:04.598Z,29.55
2022-12-03T19:12:32.752Z,29.25
2022-12-03T19:14:59.971Z,29.05
2022-12-03T19:17:27.468Z,29.83
2022-12-03T19:19:55.469Z,29.95
2022-12-03T19:22:23.626Z,29.58
2022-12-03T19:24:50.924Z,26.58
2022-12-03T19:27:18.248Z,30.45
2022-12-03T19:29:48.665Z,29.02
2022-12-03T19:32:15.963Z,28.92
2022-12-03T19:34:42.856Z,29.08
2022-12-03T19:37:10.096Z,29.25
2022-12-03T19:39:37.130Z,29.83
2022-12-03T19:42:04.232Z,29.83
2022-12-03T19:44:31.252Z,29.95
2022-12-03T19:46:58.350Z,31.17
2022-12-03T19:49:25.471Z,29.60
2022-12-03T19:51:52.755Z,30.48
2022-12-03T19:54:20.015Z,30.27
2022-12-03T19:56:46.903Z,28.35
2022-12-03T19:59:14.529Z,30.27
2022-12-03T20:01:43.223Z,29.98
2022-12-03T20:04:12.024Z,28.55
2022-12-03T20:06:39.495Z,29.50
2022-12-03T20:09:13.763Z,31.15
2022-12-03T20:11:42.699Z,31.90
2022-12-03T20:14:14.655Z,31.52
2022-12-03T20:16:41.715Z,29.90
2022-12-03T20:19:12.540Z,30.13
2022-12-03T20:21:40.529Z,29.13
2022-12-03T20:24:09.635Z,31.00
2022-12-03T20:26:36.933Z,29.27
2022-12-03T20:29:03.873Z,30.92
2022-12-03T20:31:32.290Z,30.63
2022-12-03T20:34:03.319Z,30.23
2022-12-03T20:36:32.377Z,36.00
2022-12-03T20:39:05.776Z,31.85
2022-12-03T20:41:36.117Z,30.85
2022-12-03T20:44:05.993Z,32.88
2022-12-03T20:46:33.568Z,29.23
2022-12-03T20:49:00.932Z,30.95
2022-12-03T20:51:30.961Z,31.27
2022-12-03T20:54:00.350Z,31.13
2022-12-03T20:56:34.986Z,30.77
2022-12-03T20:59:08.678Z,33.92
2022-12-03T21:01:38.421Z,32.50
2022-12-03T21:04:07.287Z,31.70
2022-12-03T21:06:37.129Z,31.42
2022-12-03T21:09:08.872Z,33.10
2022-12-03T21:11:39.288Z,31.50
2022-12-03T21:14:06.282Z,32.60
2022-12-03T21:17:06.425Z,32.13
2022-12-03T21:19:24.606Z,31.55
2022-12-03T21:21:51.739Z,31.58
2022-12-03T21:24:18.841Z,32.10
2022-12-03T21:26:50.103Z,30.67
2022-12-03T21:29:18.264Z,33.33
2022-12-03T21:31:45.208Z,32.65
2022-12-03T21:34:12.344Z,32.65
2022-12-03T21:36:40.040Z,33.35
2022-12-03T21:39:07.407Z,32.20
2022-12-03T21:41:37.246Z,32.92
2022-12-03T21:44:04.754Z,34.10
2022-12-03T21:47:12.278Z,32.35
2022-12-03T21:49:20.421Z,34.20
2022-12-03T21:51:47.326Z,32.85
2022-12-03T21:54:16.726Z,33.63
2022-12-03T21:56:43.807Z,33.45
2022-12-03T21:59:10.860Z,32.80
2022-12-03T22:01:39.661Z,34.13
2022-12-03T22:04:09.757Z,32.80
2022-12-03T22:06:36.688Z,33.40
2022-12-03T22:09:04.143Z,43.28
2022-12-03T22:11:31.116Z,37.28
2022-12-03T22:13:58.073Z,37.95
2022-12-03T22:16:25.250Z,38.13
2022-12-03T22:18:52.341Z,35.25
2022-12-03T22:21:20.474Z,34.92
2022-12-03T22:23:47.675Z,32.92
2022-12-03T22:26:17.811Z,33.60
2022-12-03T22:28:47.299Z,35.03
2022-12-03T22:31:15.085Z,32.63
2022-12-03T22:33:43.635Z,33.90
2022-12-03T22:36:19.620Z,34.13
2022-12-03T22:38:47.955Z,35.70
2022-12-03T22:41:16.061Z,35.88
2022-12-03T22:43:43.474Z,34.55
2022-12-03T22:46:12.511Z,35.35
2022-12-03T22:48:41.887Z,34.08
2022-12-03T22:51:21.042Z,34.72
2022-12-03T22:53:53.598Z,34.63
2022-12-03T22:56:22.459Z,35.97
2022-12-03T22:58:51.600Z,35.58
2022-12-03T23:01:22.280Z,35.55
2022-12-03T23:03:49.428Z,35.53
2022-12-03T23:06:16.922Z,33.22
2022-12-03T23:08:44.584Z,37.33
2022-12-03T23:11:12.348Z,34.35
2022-12-03T23:13:40.027Z,34.95
2022-12-03T23:16:07.444Z,34.83
2022-12-03T23:18:34.502Z,34.53
2022-12-03T23:21:01.552Z,33.28
2022-12-03T23:23:28.833Z,36.95
2022-12-03T23:26:01.446Z,34.88
2022-12-03T23:28:30.209Z,34.67
2022-12-03T23:30:57.357Z,35.20
2022-12-03T23:33:27.127Z,34.45
2022-12-03T23:35:54.476Z,35.60
2022-12-03T23:38:21.561Z,36.40
2022-12-03T23:40:48.768Z,36.38
2022-12-03T23:43:16.384Z,35.38
2022-12-03T23:45:43.461Z,34.17
2022-12-03T23:48:10.461Z,34.95
2022-12-03T23:50:41.343Z,34.53
2022-12-03T23:53:08.923Z,36.08
2022-12-03T23:55:40.492Z,34.90
2022-12-03T23:58:07.919Z,33.15
